createdAt,value
2019-05-22T00:02:25.954Z,15.66
2019-05-22T00:05:14.059Z,15.62
2019-05-22T00:07:45.486Z,15.60
2019-05-22T00:10:18.027Z,15.64
2019-05-22T00:12:49.438Z,15.59
2019-05-22T00:15:18.853Z,15.53
2019-05-22T00:17:49.223Z,15.54
2019-05-22T00:20:20.423Z,15.31
2019-05-22T00:22:51.093Z,15.32
2019-05-22T00:25:21.005Z,15.41
2019-05-22T00:27:53.287Z,15.41
2019-05-22T00:30:25.396Z,15.24
2019-05-22T00:32:54.135Z,15.13
2019-05-22T00:35:24.593Z,15.16
2019-05-22T00:37:54.730Z,15.26
2019-05-22T00:40:25.019Z,15.18
2019-05-22T00:43:03.247Z,15.16
2019-05-22T00:45:25.468Z,15.31
2019-05-22T00:47:54.987Z,15.30
2019-05-22T00:50:33.964Z,15.24
2019-05-22T00:53:11.872Z,15.21
2019-05-22T00:55:48.479Z,15.12
2019-05-22T00:58:19.850Z,15.22
2019-05-22T01:00:50.222Z,15.23
2019-05-22T01:03:22.542Z,15.26
2019-05-22T01:05:51.346Z,15.19
2019-05-22T01:08:21.455Z,15.23
2019-05-22T01:10:54.940Z,15.32
2019-05-22T01:13:25.628Z,15.34
2019-05-22T01:15:56.328Z,15.38
2019-05-22T01:18:27.030Z,15.36
2019-05-22T01:20:58.925Z,15.34
2019-05-22T01:23:30.930Z,15.29
2019-05-22T01:26:01.427Z,15.27
2019-05-22T01:28:32.214Z,15.15
2019-05-22T01:31:02.900Z,15.01
2019-05-22T01:33:33.279Z,15.04
2019-05-22T01:36:03.558Z,14.98
2019-05-22T01:38:33.675Z,14.82
2019-05-22T01:41:18.620Z,14.71
2019-05-22T01:43:50.398Z,14.70
2019-05-22T01:46:21.275Z,14.67
2019-05-22T01:48:54.128Z,14.70
2019-05-22T01:51:22.828Z,14.65
2019-05-22T01:53:51.934Z,14.63
2019-05-22T01:56:21.151Z,14.36
2019-05-22T01:58:50.642Z,14.39
2019-05-22T02:01:21.763Z,14.49
2019-05-22T02:03:52.256Z,14.52
2019-05-22T02:06:23.460Z,14.57
2019-05-22T02:08:56.655Z,14.51
2019-05-22T02:11:27.563Z,14.48
2019-05-22T02:14:12.575Z,14.43
2019-05-22T02:16:56.028Z,14.31
2019-05-22T02:19:16.747Z,14.17
2019-05-22T02:21:46.152Z,14.04
2019-05-22T02:24:16.153Z,14.00
2019-05-22T02:26:46.162Z,14.10
2019-05-22T02:29:17.131Z,14.11
2019-05-22T02:31:47.466Z,14.18
2019-05-22T02:34:17.099Z,14.20
2019-05-22T02:36:47.279Z,14.22
2019-05-22T02:39:31.453Z,14.32
2019-05-22T02:42:04.637Z,14.28
2019-05-22T02:44:35.425Z,14.36
2019-05-22T02:47:18.233Z,14.36
2019-05-22T02:49:38.084Z,14.31
2019-05-22T02:52:08.355Z,14.37
2019-05-22T02:54:37.763Z,14.45
2019-05-22T02:57:09.851Z,14.49
2019-05-22T02:59:38.746Z,14.57
2019-05-22T03:02:07.665Z,14.59
2019-05-22T03:04:58.693Z,14.58
2019-05-22T03:07:28.705Z,14.49
2019-05-22T03:09:57.719Z,14.35
2019-05-22T03:12:28.779Z,14.38
2019-05-22T03:14:58.628Z,14.30
2019-05-22T03:17:30.842Z,14.44
2019-05-22T03:20:03.709Z,14.47
2019-05-22T03:22:48.176Z,14.51
2019-05-22T03:25:18.673Z,14.59
2019-05-22T03:27:52.299Z,15.02
2019-05-22T03:30:24.723Z,15.52
2019-05-22T03:32:55.658Z,16.05
2019-05-22T03:35:26.338Z,16.62
2019-05-22T03:37:57.111Z,17.62
2019-05-22T03:40:28.625Z,18.43
2019-05-22T03:42:58.290Z,19.10
2019-05-22T03:45:28.407Z,19.06
2019-05-22T03:47:58.013Z,19.18
2019-05-22T03:50:28.570Z,19.38
2019-05-22T03:53:00.145Z,19.71
2019-05-22T03:55:29.390Z,20.45
2019-05-22T03:57:58.094Z,21.17
2019-05-22T04:00:28.198Z,21.64
2019-05-22T04:02:57.205Z,21.76
2019-05-22T04:05:28.009Z,22.38
2019-05-22T04:07:58.959Z,23.31
2019-05-22T04:10:31.579Z,24.07
2019-05-22T04:13:00.580Z,24.27
2019-05-22T04:15:29.872Z,24.56
2019-05-22T04:18:02.494Z,20.83
2019-05-22T04:20:31.456Z,22.21
2019-05-22T04:23:01.483Z,23.81
2019-05-22T04:25:30.982Z,24.51
2019-05-22T04:28:00.602Z,22.71
2019-05-22T04:30:29.417Z,22.35
2019-05-22T04:32:58.675Z,21.77
2019-05-22T04:35:29.194Z,20.60
2019-05-22T04:37:59.111Z,19.41
2019-05-22T04:40:39.472Z,19.81
2019-05-22T04:43:08.774Z,19.97
2019-05-22T04:45:38.081Z,21.62
2019-05-22T04:48:06.793Z,22.25
2019-05-22T04:50:37.169Z,23.09
2019-05-22T04:53:06.289Z,23.84
2019-05-22T04:55:34.990Z,23.92
2019-05-22T04:58:11.413Z,23.97
2019-05-22T05:00:41.230Z,25.45
2019-05-22T05:03:12.047Z,26.67
2019-05-22T05:05:42.372Z,27.50
2019-05-22T05:08:12.277Z,28.54
2019-05-22T05:10:42.452Z,27.98
2019-05-22T05:13:11.224Z,29.08
2019-05-22T05:15:39.919Z,29.84
2019-05-22T05:18:08.827Z,30.40
2019-05-22T05:20:38.232Z,30.82
2019-05-22T05:23:06.931Z,30.35
2019-05-22T05:25:36.064Z,29.66
2019-05-22T05:28:07.432Z,29.13
2019-05-22T05:30:36.276Z,29.20
2019-05-22T05:33:05.483Z,29.73
2019-05-22T05:35:35.986Z,30.00
2019-05-22T05:38:05.591Z,30.35
2019-05-22T05:40:38.827Z,30.89
2019-05-22T05:43:09.972Z,31.06
2019-05-22T05:45:40.572Z,30.62
2019-05-22T05:48:11.127Z,30.75
2019-05-22T05:50:42.920Z,31.08
2019-05-22T05:53:19.300Z,31.43
2019-05-22T05:56:10.637Z,31.71
2019-05-22T05:58:40.039Z,32.08
2019-05-22T06:01:23.921Z,31.38
2019-05-22T06:03:53.426Z,30.44
2019-05-22T06:06:26.044Z,28.82
2019-05-22T06:08:56.572Z,27.10
2019-05-22T06:11:40.914Z,26.41
2019-05-22T06:14:13.202Z,25.41
2019-05-22T06:16:52.363Z,24.93
2019-05-22T06:19:24.009Z,24.60
2019-05-22T06:21:53.506Z,24.49
2019-05-22T06:24:26.703Z,24.10
2019-05-22T06:27:02.837Z,23.91
2019-05-22T06:29:43.435Z,23.95
2019-05-22T06:32:38.603Z,23.93
2019-05-22T06:35:09.914Z,23.94
2019-05-22T06:38:01.529Z,23.89
2019-05-22T06:40:30.735Z,23.87
2019-05-22T06:43:25.100Z,23.73
2019-05-22T06:45:55.301Z,23.40
2019-05-22T06:48:24.113Z,23.21
2019-05-22T06:50:53.656Z,23.38
2019-05-22T06:53:22.767Z,23.33
2019-05-22T06:55:51.470Z,23.39
2019-05-22T06:58:20.302Z,23.54
2019-05-22T07:00:49.169Z,23.71
2019-05-22T07:03:17.908Z,23.81
2019-05-22T07:05:46.711Z,23.80
2019-05-22T07:08:16.023Z,23.80
2019-05-22T07:10:44.867Z,23.81
2019-05-22T07:13:14.377Z,23.84
2019-05-22T07:15:44.320Z,23.54
2019-05-22T07:18:15.399Z,23.47
2019-05-22T07:20:47.478Z,23.75
2019-05-22T07:23:19.145Z,23.97
2019-05-22T07:25:49.392Z,23.72
2019-05-22T07:28:20.113Z,23.82
2019-05-22T07:30:50.790Z,23.97
2019-05-22T07:33:21.097Z,24.08
2019-05-22T07:36:08.468Z,24.00
2019-05-22T07:38:22.445Z,24.21
2019-05-22T07:40:53.030Z,24.35
2019-05-22T07:43:22.566Z,24.13
2019-05-22T07:45:51.798Z,24.07
2019-05-22T07:48:21.783Z,23.97
2019-05-22T07:50:52.159Z,23.98
2019-05-22T07:53:22.768Z,24.27
2019-05-22T07:55:53.899Z,24.38
2019-05-22T07:58:24.791Z,24.32
2019-05-22T08:00:55.876Z,24.43
2019-05-22T08:03:25.317Z,24.51
2019-05-22T08:05:56.521Z,24.83
2019-05-22T08:08:25.934Z,25.03
2019-05-22T08:10:56.847Z,25.11
2019-05-22T08:13:26.757Z,25.21
2019-05-22T08:15:55.890Z,25.16
2019-05-22T08:18:26.284Z,25.26
2019-05-22T08:20:55.990Z,25.00
2019-05-22T08:23:26.909Z,24.67
2019-05-22T08:25:58.462Z,24.46
2019-05-22T08:28:28.992Z,24.55
2019-05-22T08:30:57.705Z,24.38
2019-05-22T08:33:26.503Z,24.15
2019-05-22T08:35:56.147Z,24.00
2019-05-22T08:38:31.092Z,24.24
2019-05-22T08:41:01.741Z,24.72
2019-05-22T08:43:32.138Z,24.81
2019-05-22T08:46:01.369Z,24.85
2019-05-22T08:48:31.700Z,25.01
2019-05-22T08:51:01.804Z,25.04
2019-05-22T08:53:46.184Z,25.17
2019-05-22T08:56:01.475Z,25.31
2019-05-22T08:58:32.057Z,25.36
2019-05-22T09:01:01.465Z,25.53
2019-05-22T09:03:30.637Z,25.68
2019-05-22T09:05:59.390Z,25.74
2019-05-22T09:08:28.189Z,25.00
2019-05-22T09:10:56.903Z,25.11
2019-05-22T09:13:25.859Z,24.89
2019-05-22T09:15:54.952Z,25.15
2019-05-22T09:18:24.555Z,25.34
2019-05-22T09:20:53.655Z,25.65
2019-05-22T09:23:22.523Z,25.72
2019-05-22T09:25:51.313Z,25.66
2019-05-22T09:28:20.519Z,25.81
2019-05-22T09:30:49.230Z,25.88
2019-05-22T09:33:19.537Z,25.82
2019-05-22T09:35:49.385Z,25.88
2019-05-22T09:38:18.591Z,26.10
2019-05-22T09:40:48.565Z,26.15
2019-05-22T09:43:17.384Z,26.42
2019-05-22T09:45:46.084Z,26.38
2019-05-22T09:48:15.944Z,26.46
2019-05-22T09:50:44.813Z,25.65
2019-05-22T09:53:13.545Z,25.59
2019-05-22T09:55:46.918Z,25.83
2019-05-22T09:58:13.387Z,25.84
2019-05-22T10:00:42.244Z,26.13
2019-05-22T10:03:11.366Z,26.14
2019-05-22T10:05:40.212Z,26.10
2019-05-22T10:08:09.316Z,25.96
2019-05-22T10:10:38.933Z,26.15
2019-05-22T10:13:07.636Z,26.60
2019-05-22T10:15:36.579Z,26.87
2019-05-22T10:18:05.587Z,26.94
2019-05-22T10:20:34.696Z,27.16
2019-05-22T10:23:14.669Z,27.45
2019-05-22T10:25:35.431Z,27.52
2019-05-22T10:28:07.065Z,27.30
2019-05-22T10:30:36.029Z,27.26
2019-05-22T10:33:05.755Z,27.15
2019-05-22T10:35:34.731Z,27.25
2019-05-22T10:38:03.597Z,26.64
2019-05-22T10:40:32.994Z,27.27
2019-05-22T10:43:02.414Z,27.27
2019-05-22T10:45:31.123Z,26.98
2019-05-22T10:47:59.877Z,27.14
2019-05-22T10:50:28.577Z,27.51
2019-05-22T10:52:57.503Z,27.51
2019-05-22T10:55:27.198Z,27.93
2019-05-22T10:57:55.983Z,28.23
2019-05-22T11:00:26.048Z,28.46
2019-05-22T11:02:55.063Z,28.40
2019-05-22T11:05:23.783Z,27.42
2019-05-22T11:07:52.522Z,27.05
2019-05-22T11:10:24.838Z,26.70
2019-05-22T11:12:53.953Z,27.17
2019-05-22T11:15:23.765Z,27.24
2019-05-22T11:17:53.669Z,27.36
2019-05-22T11:20:23.714Z,27.50
2019-05-22T11:22:53.319Z,27.50
2019-05-22T11:25:22.844Z,27.00
2019-05-22T11:27:53.739Z,27.32
2019-05-22T11:30:23.464Z,27.76
2019-05-22T11:32:52.457Z,27.20
2019-05-22T11:35:21.873Z,26.66
2019-05-22T11:37:50.600Z,26.28
2019-05-22T11:40:21.424Z,26.28
2019-05-22T11:42:53.019Z,26.01
2019-05-22T11:45:22.402Z,26.54
2019-05-22T11:47:51.614Z,26.54
2019-05-22T11:50:21.298Z,26.27
2019-05-22T11:52:50.173Z,26.70
2019-05-22T11:55:19.300Z,26.82
2019-05-22T11:57:47.985Z,26.87
2019-05-22T12:00:21.268Z,26.55
2019-05-22T12:02:51.857Z,26.51
2019-05-22T12:05:22.091Z,26.67
2019-05-22T12:07:51.497Z,27.00
2019-05-22T12:10:21.219Z,26.92
2019-05-22T12:12:51.545Z,26.93
2019-05-22T12:15:24.145Z,27.14
2019-05-22T12:17:55.092Z,27.45
2019-05-22T12:20:25.208Z,27.76
2019-05-22T12:22:53.892Z,27.97
2019-05-22T12:25:22.954Z,28.35
2019-05-22T12:27:52.157Z,28.30
2019-05-22T12:30:22.856Z,28.28
2019-05-22T12:32:52.650Z,28.26
2019-05-22T12:35:22.307Z,28.12
2019-05-22T12:37:51.061Z,28.09
2019-05-22T12:40:21.174Z,27.96
2019-05-22T12:42:51.616Z,28.37
2019-05-22T12:45:28.982Z,28.35
2019-05-22T12:47:58.598Z,28.21
2019-05-22T12:50:29.926Z,28.75
2019-05-22T12:53:01.250Z,29.11
2019-05-22T12:55:30.759Z,29.28
2019-05-22T12:58:00.816Z,28.94
2019-05-22T13:00:31.522Z,28.87
2019-05-22T13:03:02.200Z,28.88
2019-05-22T13:05:31.410Z,27.92
2019-05-22T13:08:00.122Z,27.18
2019-05-22T13:10:29.402Z,27.47
2019-05-22T13:12:58.604Z,27.47
2019-05-22T13:15:27.509Z,27.21
2019-05-22T13:17:58.341Z,27.21
2019-05-22T13:20:42.526Z,27.92
2019-05-22T13:23:07.384Z,27.92
2019-05-22T13:25:39.994Z,28.57
2019-05-22T13:28:11.736Z,28.69
2019-05-22T13:30:43.408Z,28.32
2019-05-22T13:33:15.268Z,28.26
2019-05-22T13:35:45.382Z,28.30
2019-05-22T13:38:14.427Z,28.50
2019-05-22T13:40:44.634Z,28.34
2019-05-22T13:43:13.438Z,28.55
2019-05-22T13:45:42.946Z,28.26
2019-05-22T13:48:13.089Z,28.13
2019-05-22T13:50:41.793Z,28.14
2019-05-22T13:53:12.704Z,28.10
2019-05-22T13:55:41.518Z,28.55
2019-05-22T13:58:12.020Z,28.55
2019-05-22T14:00:41.867Z,28.86
2019-05-22T14:03:11.268Z,29.40
2019-05-22T14:05:42.143Z,29.60
2019-05-22T14:08:12.489Z,29.47
2019-05-22T14:10:41.392Z,29.39
2019-05-22T14:13:10.418Z,29.33
2019-05-22T14:15:52.012Z,29.57
2019-05-22T14:18:09.656Z,29.31
2019-05-22T14:20:38.846Z,29.26
2019-05-22T14:23:07.674Z,28.73
2019-05-22T14:25:36.991Z,28.86
2019-05-22T14:28:07.835Z,29.06
2019-05-22T14:30:36.532Z,29.01
2019-05-22T14:33:06.035Z,29.03
2019-05-22T14:35:47.763Z,28.80
2019-05-22T14:38:07.765Z,28.94
2019-05-22T14:40:37.726Z,29.28
2019-05-22T14:43:06.422Z,29.10
2019-05-22T14:45:35.826Z,28.80
2019-05-22T14:48:04.883Z,28.97
2019-05-22T14:50:33.784Z,28.89
2019-05-22T14:53:03.094Z,28.66
2019-05-22T14:55:33.877Z,28.83
2019-05-22T14:58:05.211Z,28.90
2019-05-22T15:00:36.312Z,28.85
2019-05-22T15:03:05.920Z,28.90
2019-05-22T15:05:34.922Z,28.85
2019-05-22T15:08:05.028Z,28.62
2019-05-22T15:10:34.527Z,28.50
2019-05-22T15:13:03.572Z,28.42
2019-05-22T15:15:32.581Z,28.46
2019-05-22T15:18:01.301Z,28.16
2019-05-22T15:20:34.415Z,28.12
2019-05-22T15:23:03.324Z,28.21
2019-05-22T15:25:32.569Z,28.33
2019-05-22T15:28:02.075Z,27.86
2019-05-22T15:30:31.179Z,27.14
2019-05-22T15:32:59.942Z,27.25
2019-05-22T15:35:28.755Z,27.43
2019-05-22T15:37:58.363Z,27.43
2019-05-22T15:40:30.087Z,27.52
2019-05-22T15:42:58.731Z,27.66
2019-05-22T15:45:29.812Z,27.66
2019-05-22T15:48:05.231Z,27.83
2019-05-22T15:50:35.232Z,28.10
2019-05-22T15:53:11.146Z,28.64
2019-05-22T15:55:41.372Z,29.95
2019-05-22T15:58:12.087Z,31.21
2019-05-22T16:00:41.075Z,31.61
2019-05-22T16:03:18.632Z,31.11
2019-05-22T16:05:48.222Z,30.00
2019-05-22T16:08:18.430Z,28.62
2019-05-22T16:10:48.969Z,28.05
2019-05-22T16:13:21.545Z,27.80
2019-05-22T16:15:53.762Z,27.93
2019-05-22T16:18:25.539Z,28.35
2019-05-22T16:20:54.946Z,28.88
2019-05-22T16:23:25.350Z,29.31
2019-05-22T16:25:54.666Z,29.65
2019-05-22T16:28:24.076Z,28.99
2019-05-22T16:30:55.130Z,28.48
2019-05-22T16:33:25.489Z,27.82
2019-05-22T16:35:54.689Z,27.22
2019-05-22T16:38:25.598Z,26.88
2019-05-22T16:40:54.571Z,26.75
2019-05-22T16:43:23.571Z,26.95
2019-05-22T16:45:53.697Z,27.13
2019-05-22T16:48:29.046Z,27.41
2019-05-22T16:50:53.700Z,27.78
2019-05-22T16:53:24.965Z,27.87
2019-05-22T16:55:54.368Z,27.98
2019-05-22T16:58:23.873Z,27.70
2019-05-22T17:00:56.677Z,27.16
2019-05-22T17:03:27.049Z,26.56
2019-05-22T17:05:56.647Z,26.33
2019-05-22T17:08:27.654Z,26.00
2019-05-22T17:10:58.623Z,25.80
2019-05-22T17:13:30.398Z,25.53
2019-05-22T17:16:00.895Z,25.33
2019-05-22T17:18:46.020Z,25.04
2019-05-22T17:21:05.373Z,25.12
2019-05-22T17:23:34.385Z,24.94
2019-05-22T17:26:04.698Z,24.75
2019-05-22T17:28:34.442Z,24.62
2019-05-22T17:31:04.279Z,24.58
2019-05-22T17:33:33.984Z,24.53
2019-05-22T17:36:05.716Z,24.47
2019-05-22T17:38:36.171Z,24.43
2019-05-22T17:41:05.884Z,24.41
2019-05-22T17:43:35.207Z,24.34
2019-05-22T17:46:05.544Z,24.31
2019-05-22T17:48:34.761Z,24.37
2019-05-22T17:51:03.917Z,24.34
2019-05-22T17:53:32.642Z,24.30
2019-05-22T17:56:01.611Z,24.37
2019-05-22T17:58:30.692Z,24.30
2019-05-22T18:01:00.527Z,24.34
2019-05-22T18:03:29.436Z,24.34
2019-05-22T18:05:59.024Z,24.30
2019-05-22T18:08:29.186Z,24.32
2019-05-22T18:11:00.371Z,24.20
2019-05-22T18:13:31.108Z,24.16
2019-05-22T18:16:04.199Z,24.13
2019-05-22T18:18:30.645Z,24.06
2019-05-22T18:20:59.771Z,24.04
2019-05-22T18:23:28.551Z,24.08
2019-05-22T18:25:57.251Z,23.94
2019-05-22T18:28:25.990Z,23.83
2019-05-22T18:30:55.412Z,23.78
2019-05-22T18:33:24.225Z,23.75
2019-05-22T18:35:52.940Z,23.67
2019-05-22T18:38:21.651Z,23.59
2019-05-22T18:40:51.566Z,23.59
2019-05-22T18:43:23.039Z,23.51
2019-05-22T18:45:51.651Z,23.54
2019-05-22T18:48:20.474Z,23.51
2019-05-22T18:50:49.360Z,23.54
2019-05-22T18:53:18.366Z,23.55
2019-05-22T18:55:47.084Z,23.47
2019-05-22T18:58:15.917Z,23.48
2019-05-22T19:00:44.918Z,23.43
2019-05-22T19:03:14.375Z,23.38
2019-05-22T19:05:43.775Z,23.37
2019-05-22T19:08:12.588Z,23.33
2019-05-22T19:10:41.394Z,23.29
2019-05-22T19:13:14.371Z,23.24
2019-05-22T19:15:41.438Z,23.18
2019-05-22T19:18:10.307Z,23.03
2019-05-22T19:20:39.003Z,23.12
2019-05-22T19:23:07.804Z,22.98
2019-05-22T19:25:36.545Z,22.96
2019-05-22T19:28:05.365Z,22.94
2019-05-22T19:30:34.292Z,22.98
2019-05-22T19:33:02.991Z,23.01
2019-05-22T19:35:31.701Z,23.03
2019-05-22T19:38:01.184Z,22.94
2019-05-22T19:40:29.989Z,22.95
2019-05-22T19:42:58.814Z,22.95
2019-05-22T19:45:30.844Z,22.91
2019-05-22T19:47:58.939Z,22.89
2019-05-22T19:50:29.190Z,22.92
2019-05-22T19:53:15.703Z,22.89
2019-05-22T19:55:30.127Z,22.83
2019-05-22T19:57:58.878Z,22.78
2019-05-22T20:00:27.982Z,22.85
2019-05-22T20:02:56.680Z,22.31
2019-05-22T20:05:25.637Z,22.05
2019-05-22T20:07:54.941Z,21.95
2019-05-22T20:10:25.453Z,21.77
2019-05-22T20:12:55.367Z,21.62
2019-05-22T20:15:24.967Z,21.68
2019-05-22T20:17:54.312Z,21.57
2019-05-22T20:20:24.511Z,21.33
2019-05-22T20:22:53.324Z,21.37
2019-05-22T20:25:23.159Z,21.35
2019-05-22T20:27:52.061Z,21.36
2019-05-22T20:30:22.910Z,21.34
2019-05-22T20:32:51.621Z,21.33
2019-05-22T20:35:20.434Z,21.15
2019-05-22T20:37:49.495Z,21.12
2019-05-22T20:40:20.361Z,21.15
2019-05-22T20:42:49.595Z,21.11
2019-05-22T20:45:21.389Z,20.99
2019-05-22T20:47:54.567Z,20.97
2019-05-22T20:50:25.300Z,20.96
2019-05-22T20:52:55.219Z,20.95
2019-05-22T20:55:24.642Z,20.82
2019-05-22T20:57:53.352Z,20.71
2019-05-22T21:00:23.393Z,20.67
2019-05-22T21:02:54.982Z,20.45
2019-05-22T21:05:24.220Z,20.37
2019-05-22T21:07:55.872Z,20.26
2019-05-22T21:10:26.173Z,20.29
2019-05-22T21:12:55.798Z,20.26
2019-05-22T21:15:24.609Z,20.28
2019-05-22T21:17:54.050Z,20.26
2019-05-22T21:20:24.320Z,20.23
2019-05-22T21:22:53.302Z,20.16
2019-05-22T21:25:23.471Z,20.21
2019-05-22T21:27:52.277Z,20.23
2019-05-22T21:30:21.401Z,20.32
2019-05-22T21:32:50.599Z,20.29
2019-05-22T21:35:19.898Z,20.26
2019-05-22T21:37:48.816Z,20.30
2019-05-22T21:40:21.461Z,20.28
2019-05-22T21:42:51.418Z,20.16
2019-05-22T21:45:20.718Z,20.17
2019-05-22T21:47:50.509Z,20.11
2019-05-22T21:50:20.825Z,20.06
2019-05-22T21:52:49.541Z,20.12
2019-05-22T21:55:20.961Z,19.96
2019-05-22T21:57:49.767Z,19.79
2019-05-22T22:00:40.905Z,19.83
2019-05-22T22:03:12.837Z,19.73
2019-05-22T22:05:42.340Z,19.78
2019-05-22T22:08:11.657Z,19.71
2019-05-22T22:10:40.607Z,19.72
2019-05-22T22:13:10.630Z,19.61
2019-05-22T22:15:44.009Z,19.65
2019-05-22T22:18:13.207Z,19.69
2019-05-22T22:20:42.888Z,19.65
2019-05-22T22:23:14.814Z,19.70
2019-05-22T22:25:44.172Z,19.58
2019-05-22T22:28:15.673Z,19.58
2019-05-22T22:30:55.740Z,19.60
2019-05-22T22:33:28.924Z,19.59
2019-05-22T22:35:57.728Z,19.57
2019-05-22T22:38:28.182Z,19.64
2019-05-22T22:40:57.486Z,19.64
2019-05-22T22:43:32.659Z,19.52
2019-05-22T22:46:05.440Z,19.51
2019-05-22T22:48:37.562Z,19.46
2019-05-22T22:51:09.703Z,19.48
2019-05-22T22:53:39.008Z,19.48
2019-05-22T22:56:09.847Z,19.39
2019-05-22T22:58:39.154Z,19.30
2019-05-22T23:01:10.770Z,19.38
2019-05-22T23:03:40.179Z,19.44
2019-05-22T23:06:12.230Z,19.50
2019-05-22T23:08:41.693Z,19.54
2019-05-22T23:11:11.176Z,19.49
2019-05-22T23:13:41.183Z,19.46
2019-05-22T23:16:11.989Z,19.46
2019-05-22T23:18:44.595Z,19.47
2019-05-22T23:21:13.647Z,19.46
2019-05-22T23:23:41.271Z,19.48
2019-05-22T23:26:11.573Z,19.39
2019-05-22T23:28:42.211Z,19.32
2019-05-22T23:31:12.005Z,19.16
2019-05-22T23:33:41.148Z,18.94
2019-05-22T23:36:12.197Z,18.85
2019-05-22T23:38:41.739Z,18.79
2019-05-22T23:41:11.998Z,18.74
2019-05-22T23:43:42.443Z,18.69
2019-05-22T23:46:13.416Z,18.62
2019-05-22T23:48:43.924Z,18.55
2019-05-22T23:51:12.911Z,18.46
2019-05-22T23:53:42.825Z,18.37
2019-05-22T23:56:11.828Z,18.33
2019-05-22T23:58:52.248Z,18.24
